AAL5621 KABQ-KPHX
Flight info
| Callsign | AAL5621 |
|---|---|
| Flight time | N/A |
| Altitude | 34000 |
| Route | KABQ ADYOS3 ZUN BUNTR3 KPHX |
| Aircraft | A333/H-SDE3GHIJ2J3J5M1RVWXY/LB2D1 |
Departure
| Time | 2025-10-27 21:33 |
|---|---|
| Airport | Albuquerque International Sunport (KABQ) |
Arrival
| Time | N/A |
|---|---|
| Airport | Phoenix Sky Harbor International Airport (KPHX) |
| Time | Latitude | Longitude | Altitude | Speed | Heading |
|---|---|---|---|---|---|
| 2025-10-27 21:13 | 35.04673 | -106.61696 | 5331 ft | 0 kts | 13° |
| 2025-10-27 21:20 | 35.04670 | -106.61697 | 5336 ft | 2 kts | 13° |
| 2025-10-27 21:21 | 35.04638 | -106.61708 | 5334 ft | 2 kts | 19° |
| 2025-10-27 21:21 | 35.04608 | -106.61724 | 5334 ft | 2 kts | 28° |
| 2025-10-27 21:22 | 35.04581 | -106.61746 | 5336 ft | 2 kts | 44° |
| 2025-10-27 21:22 | 35.04562 | -106.61778 | 5338 ft | 2 kts | 71° |
| 2025-10-27 21:23 | 35.04558 | -106.61814 | 5336 ft | 1 kts | 93° |
| 2025-10-27 21:25 | 35.04553 | -106.61618 | 5334 ft | 20 kts | 90° |
| 2025-10-27 21:25 | 35.04578 | -106.61108 | 5333 ft | 41 kts | 91° |
| 2025-10-27 21:26 | 35.04572 | -106.60262 | 5336 ft | 55 kts | 90° |
| 2025-10-27 21:26 | 35.04581 | -106.59198 | 5336 ft | 64 kts | 90° |
| 2025-10-27 21:27 | 35.04577 | -106.58482 | 5334 ft | 27 kts | 90° |
| 2025-10-27 21:27 | 35.04575 | -106.58052 | 5331 ft | 25 kts | 90° |
| 2025-10-27 21:28 | 35.04533 | -106.57730 | 5334 ft | 14 kts | 153° |
| 2025-10-27 21:28 | 35.04503 | -106.57718 | 5335 ft | 0 kts | 168° |
| 2025-10-27 21:30 | 35.04444 | -106.57743 | 5335 ft | 9 kts | 225° |
| 2025-10-27 21:30 | 35.04409 | -106.57863 | 5321 ft | 0 kts | 269° |
| 2025-10-27 21:31 | 35.04410 | -106.58088 | 5334 ft | 60 kts | 271° |
| 2025-10-27 21:31 | 35.04420 | -106.60187 | 5346 ft | 179 kts | 269° |
| 2025-10-27 21:31 | 35.04402 | -106.61831 | 5700 ft | 209 kts | 266° |
| 2025-10-27 21:32 | 35.04276 | -106.70116 | 8337 ft | 299 kts | 272° |
| 2025-10-27 21:33 | 35.04303 | -106.72773 | 8928 ft | 327 kts | 271° |
| 2025-10-27 21:33 | 35.04358 | -106.78679 | 10520 ft | 359 kts | 271° |
| 2025-10-27 21:34 | 35.04481 | -106.84614 | 12560 ft | 341 kts | 273° |
| 2025-10-27 21:34 | 35.04692 | -106.90467 | 13678 ft | 350 kts | 274° |
| 2025-10-27 21:35 | 35.04664 | -106.96461 | 14834 ft | 357 kts | 270° |
| 2025-10-27 21:35 | 35.04484 | -107.02548 | 16032 ft | 361 kts | 270° |
| 2025-10-27 21:35 | 35.04392 | -107.05618 | 16635 ft | 363 kts | 269° |
| 2025-10-27 21:36 | 35.04207 | -107.11790 | 17901 ft | 365 kts | 269° |
| 2025-10-27 21:37 | 35.03925 | -107.21082 | 19667 ft | 365 kts | 270° |
| 2025-10-27 21:37 | 35.03735 | -107.27275 | 20866 ft | 366 kts | 270° |
| 2025-10-27 21:38 | 35.03546 | -107.33470 | 22127 ft | 365 kts | 271° |
| 2025-10-27 21:38 | 35.03354 | -107.39636 | 23429 ft | 363 kts | 271° |
| 2025-10-27 21:39 | 35.03159 | -107.45892 | 23877 ft | 379 kts | 271° |
| 2025-10-27 21:39 | 35.03058 | -107.49160 | 23895 ft | 392 kts | 271° |
| 2025-10-27 21:40 | 35.02838 | -107.55991 | 23908 ft | 410 kts | 271° |
| 2025-10-27 21:40 | 35.02605 | -107.62956 | 23920 ft | 410 kts | 271° |
| 2025-10-27 21:41 | 35.02251 | -107.73376 | 23920 ft | 410 kts | 271° |
| 2025-10-27 21:41 | 35.02012 | -107.80329 | 23925 ft | 411 kts | 271° |
| 2025-10-27 21:42 | 35.01770 | -107.87275 | 23923 ft | 413 kts | 271° |
| 2025-10-27 21:42 | 35.01521 | -107.94281 | 23928 ft | 413 kts | 271° |
| 2025-10-27 21:43 | 35.01267 | -108.01283 | 23927 ft | 413 kts | 271° |
| 2025-10-27 21:44 | 35.00881 | -108.11792 | 23930 ft | 413 kts | 271° |
| 2025-10-27 21:44 | 35.00618 | -108.18793 | 23933 ft | 413 kts | 271° |
| 2025-10-27 21:45 | 35.00217 | -108.29281 | 23930 ft | 413 kts | 271° |
| 2025-10-27 21:45 | 34.99943 | -108.36297 | 23929 ft | 414 kts | 271° |
| 2025-10-27 21:46 | 34.99666 | -108.43300 | 23921 ft | 414 kts | 271° |
| 2025-10-27 21:46 | 34.99526 | -108.46805 | 23928 ft | 415 kts | 271° |
| 2025-10-27 21:47 | 34.99242 | -108.53846 | 23930 ft | 416 kts | 271° |
| 2025-10-27 21:47 | 34.98952 | -108.60898 | 23936 ft | 416 kts | 270° |
| 2025-10-27 21:48 | 34.98660 | -108.67949 | 23930 ft | 416 kts | 270° |
| 2025-10-27 21:48 | 34.98362 | -108.74997 | 23928 ft | 416 kts | 270° |
| 2025-10-27 21:49 | 34.97908 | -108.85588 | 23932 ft | 419 kts | 270° |
| 2025-10-27 21:49 | 34.97598 | -108.92692 | 23934 ft | 420 kts | 270° |
| 2025-10-27 21:50 | 34.97284 | -108.99797 | 23928 ft | 420 kts | 270° |
| 2025-10-27 21:50 | 34.96965 | -109.06897 | 23959 ft | 420 kts | 270° |
| 2025-10-27 21:51 | 34.96653 | -109.13978 | 23930 ft | 417 kts | 271° |
| 2025-10-27 21:52 | 34.92497 | -109.27398 | 23948 ft | 434 kts | 249° |
| 2025-10-27 21:52 | 34.91172 | -109.30700 | 23946 ft | 434 kts | 250° |
| 2025-10-27 21:53 | 34.87384 | -109.40714 | 23953 ft | 433 kts | 251° |
| 2025-10-27 21:53 | 34.84914 | -109.47408 | 23952 ft | 434 kts | 251° |
| 2025-10-27 21:54 | 34.82461 | -109.54078 | 23960 ft | 435 kts | 251° |
| 2025-10-27 21:54 | 34.81224 | -109.57439 | 23959 ft | 436 kts | 251° |
| 2025-10-27 21:55 | 34.77505 | -109.67525 | 23948 ft | 436 kts | 251° |
| 2025-10-27 21:55 | 34.76245 | -109.70933 | 23944 ft | 436 kts | 251° |
| 2025-10-27 21:56 | 34.73781 | -109.77588 | 23941 ft | 436 kts | 251° |
| 2025-10-27 21:56 | 34.71687 | -109.83234 | 23937 ft | 436 kts | 250° |
| 2025-10-27 21:57 | 34.67528 | -109.94425 | 23946 ft | 437 kts | 250° |
| 2025-10-27 21:57 | 34.66273 | -109.97794 | 23947 ft | 437 kts | 250° |
| 2025-10-27 21:58 | 34.62914 | -110.06795 | 23947 ft | 438 kts | 250° |
| 2025-10-27 21:58 | 34.60396 | -110.13527 | 23949 ft | 438 kts | 250° |
| 2025-10-27 21:59 | 34.57873 | -110.20260 | 23950 ft | 439 kts | 250° |
| 2025-10-27 21:59 | 34.55336 | -110.27014 | 23957 ft | 440 kts | 250° |
| 2025-10-27 22:00 | 34.52813 | -110.33716 | 23960 ft | 440 kts | 250° |
| 2025-10-27 22:00 | 34.48997 | -110.43829 | 23970 ft | 440 kts | 250° |
| 2025-10-27 22:01 | 34.47724 | -110.47197 | 24093 ft | 439 kts | 250° |
| 2025-10-27 22:01 | 34.45180 | -110.53914 | 24979 ft | 438 kts | 250° |
| 2025-10-27 22:03 | 34.37591 | -110.73870 | 27906 ft | 432 kts | 250° |
| 2025-10-27 22:05 | 34.22463 | -110.96348 | 29499 ft | 437 kts | 232° |
| 2025-10-27 22:06 | 34.09538 | -111.12947 | 23026 ft | 471 kts | 231° |
| 2025-10-27 22:07 | 34.05141 | -111.18560 | 22521 ft | 436 kts | 231° |
| 2025-10-27 22:07 | 34.01170 | -111.23501 | 22682 ft | 390 kts | 231° |